Flight Track Log - Related Links

Times and Time Zones

All times are in EST time to prevent confusion due to time zone crossing. See the BJS618 flight status page for this flight to view local times or setup timezone preferences in your user account.

Time Position Orientation Groundspeed Altitude Reporting Facility
EST Latitude Longitude Course Direction KTS MPH feet Rate Location/Type
Wed 09:13:10 AM 38.8833 -77.4333 218° Southwest 174 200 4,900  Level Potomac TRACON
Wed 09:14:04 AM 38.8333 -77.4333 180° South 196 226 7,000 2,817 Climbing Potomac TRACON
Wed 09:15:05 AM 38.7667 -77.4667 201° Southwest 238 274 10,300 2,926 Climbing Potomac TRACON
Wed 09:16:05 AM 38.6833 -77.4833 189° South 302 348 12,900 2,350 Climbing Potomac TRACON
Wed 09:17:05 AM 38.6000 -77.5167 197° South 356 410 15,000 1,941 Climbing Potomac TRACON
Wed 09:18:00 AM 38.2747 -77.6261 218° Southwest  Level Estimated
Wed 09:18:21 AM 38.4906 -77.5731 202° Southwest 364 419 17,300  Level Washington Center
Wed 09:19:22 AM 38.4181 -77.6639 224° Southwest 352 405 20,800 3,620 Climbing Washington Center
Wed 09:20:22 AM 38.3478 -77.7519 225° Southwest 352 405 24,600 2,926 Climbing Washington Center
Wed 09:21:23 AM 38.2775 -77.8372 224° Southwest 352 405 26,700 1,765 Climbing Washington Center
Wed 09:22:21 AM 38.1983 -77.9300 223° Southwest 365 420 28,100 1,627 Climbing Washington Center
Wed 09:23:21 AM 38.1214 -78.0253 224° Southwest 385 443 29,900 1,785 Climbing Washington Center
Wed 09:24:22 AM 38.0381 -78.1228 223° Southwest 390 449 31,700 1,736 Climbing Washington Center
Wed 09:25:22 AM 37.9592 -78.2097 221° Southwest 385 443 33,400 1,587 Climbing Washington Center
Wed 09:26:23 AM 37.8717 -78.2961 218° Southwest 390 449 34,900 793 Climbing Washington Center
Wed 09:27:23 AM 37.7694 -78.3897 216° Southwest 408 470 35,000 51 Climbing Washington Center
Wed 09:28:21 AM 37.6778 -78.4756 217° Southwest 413 475 35,000  Level Washington Center
Wed 09:29:21 AM 37.5858 -78.5611 216° Southwest 418 481 35,000 545 Level Washington Center
Wed 09:30:22 AM 37.4942 -78.6464 216° Southwest 418 481 36,100 1,438 Climbing Washington Center
Wed 09:31:22 AM 37.4106 -78.7269 217° Southwest 418 481 37,900 1,537 Climbing Washington Center
Wed 09:32:23 AM 37.3231 -78.8067 216° Southwest 413 475 39,200 1,140 Climbing Washington Center
Wed 09:33:23 AM 37.2353 -78.8867 216° Southwest 408 470 40,200 1,050 Climbing Washington Center
Wed 09:34:23 AM 37.1475 -78.9689 217° Southwest 408 470 41,300 1,017 Climbing Washington Center
Wed 09:35:21 AM 37.0597 -79.0483 216° Southwest 398 458 42,200 712 Climbing Washington Center
Wed 09:36:21 AM 36.9739 -79.1275 216° Southwest 393 452 42,700 397 Climbing Washington Center
Wed 09:37:22 AM 36.8772 -79.2167 216° Southwest 393 452 43,000 149 Climbing Washington Center
Wed 09:38:22 AM 36.7894 -79.2981 217° Southwest 398 458 43,000  Level Washington Center
Wed 09:39:23 AM 36.7011 -79.3794 216° Southwest 398 458 43,000  Level Washington Center
Wed 09:40:23 AM 36.6131 -79.4606 216° Southwest 398 458 43,000  Level Washington Center
Wed 09:41:21 AM 36.5314 -79.5339 216° Southwest 398 458 43,000  Level Washington Center
Wed 09:42:21 AM 36.4431 -79.6147 216° Southwest 398 458 43,000  Level Washington Center
Wed 09:44:33 AM 36.2494 -79.7881 216° Southwest 395 455 43,000  Level Atlanta Center
Wed 09:45:33 AM 36.1483 -79.8783 216° Southwest 395 455 43,000  Level Atlanta Center
Wed 09:46:33 AM 36.0394 -79.9225 198° South 400 460 43,000  Level Atlanta Center
Wed 09:47:33 AM 35.9281 -79.9614 196° South 411 473 43,000  Level Atlanta Center
Wed 09:48:33 AM 35.8144 -79.9978 195° South 418 481 43,000  Level Atlanta Center
Wed 09:49:33 AM 35.7136 -80.0361 197° South 424 488 43,000  Level Atlanta Center
Wed 09:50:33 AM 35.5897 -80.0778 195° South 424 488 43,000  Level Atlanta Center
Wed 09:51:33 AM 35.4742 -80.1192 196° South 429 494 43,000  Level Atlanta Center
Wed 09:52:33 AM 35.3647 -80.1550 195° South 429 494 43,000  Level Atlanta Center
Wed 09:53:33 AM 35.2636 -80.1903 196° South 423 487 43,000  Level Atlanta Center
Wed 09:55:53 AM 34.9983 -80.2800 195° South 425 489 43,000  Level Jacksonville Center
Wed 09:56:53 AM 34.8867 -80.3214 197° South 425 489 43,000  Level Jacksonville Center
Wed 09:57:53 AM 34.7644 -80.3578 194° South 425 489 43,000  Level Jacksonville Center
Wed 09:58:53 AM 34.6483 -80.3992 196° South 425 489 43,000  Level Jacksonville Center
Wed 09:59:53 AM 34.5322 -80.4353 194° South 430 495 43,000  Level Jacksonville Center
Wed 10:00:53 AM 34.4183 -80.4711 195° South 430 495 43,000  Level Jacksonville Center
Wed 10:01:53 AM 34.3042 -80.5094 196° South 430 495 43,000  Level Jacksonville Center
Wed 10:02:53 AM 34.1881 -80.5478 195° South 430 495 43,000  Level Jacksonville Center
Wed 10:03:53 AM 34.0742 -80.5861 196° South 430 495 43,000  Level Jacksonville Center
Wed 10:04:53 AM 33.9600 -80.6242 195° South 430 495 43,000  Level Jacksonville Center
Wed 10:05:53 AM 33.8458 -80.6619 195° South 430 495 43,000  Level Jacksonville Center
Wed 10:06:53 AM 33.7317 -80.7000 195° South 430 495 43,000  Level Jacksonville Center
Wed 10:07:53 AM 33.6156 -80.7378 195° South 430 495 43,000  Level Jacksonville Center
Wed 10:08:53 AM 33.4994 -80.7753 195° South 430 495 43,000  Level Jacksonville Center
Wed 10:09:53 AM 33.3853 -80.8131 195° South 430 495 43,000  Level Jacksonville Center
Wed 10:10:53 AM 33.2669 -80.8481 194° South 430 495 43,000  Level Jacksonville Center
Wed 10:11:53 AM 33.1547 -80.8853 196° South 430 495 43,000  Level Jacksonville Center
Wed 10:12:53 AM 33.0364 -80.9203 194° South 430 495 43,000  Level Jacksonville Center
Wed 10:13:53 AM 32.9200 -80.9572 195° South 430 495 43,000  Level Jacksonville Center
Wed 10:14:53 AM 32.8036 -80.9944 195° South 430 495 43,000  Level Jacksonville Center
Wed 10:15:53 AM 32.6872 -81.0314 195° South 430 495 43,000  Level Jacksonville Center
Wed 10:16:53 AM 32.5772 -81.0683 196° South 424 488 43,000  Level Jacksonville Center
Wed 10:17:53 AM 32.4711 -81.1000 194° South 424 488 43,000  Level Jacksonville Center
Wed 10:18:53 AM 32.3403 -81.1419 195° South 442 509 43,000  Level Jacksonville Center
Wed 10:19:53 AM 32.2214 -81.1589 187° South 427 491 43,000  Level Jacksonville Center
Wed 10:20:53 AM 32.1025 -81.1514 177° South 422 486 43,000  Level Jacksonville Center
Wed 10:21:53 AM 31.9814 -81.1511 180° South 428 493 43,000  Level Jacksonville Center
Wed 10:22:53 AM 31.8622 -81.1461 178° South 428 493 43,000  Level Jacksonville Center
Wed 10:23:53 AM 31.7536 -81.1456 180° South 428 493 43,000  Level Jacksonville Center
Wed 10:24:53 AM 31.6242 -81.1456 180° South 428 493 43,000  Level Jacksonville Center
Wed 10:25:53 AM 31.5178 -81.1428 179° South 433 498 43,000  Level Jacksonville Center
Wed 10:26:53 AM 31.3819 -81.1406 179° South 439 505 43,000  Level Jacksonville Center
Wed 10:27:53 AM 31.2608 -81.1403 180° South 439 505 43,000  Level Jacksonville Center
Wed 10:28:53 AM 31.1375 -81.1378 179° South 446 513 43,000  Level Jacksonville Center
Wed 10:29:53 AM 31.0144 -81.1375 180° South 441 507 43,000  Level Jacksonville Center
Wed 10:30:53 AM 30.8933 -81.1325 178° South 441 507 43,000  Level Jacksonville Center
Wed 10:31:53 AM 30.7742 -81.1325 180° South 441 507 43,000  Level Jacksonville Center
Wed 10:32:53 AM 30.6592 -81.1247 177° South 436 502 43,000  Level Jacksonville Center
Wed 10:33:53 AM 30.5400 -81.0958 168° South 436 502 43,000  Level Jacksonville Center
Wed 10:34:53 AM 30.4183 -81.0692 169° South 436 502 43,000  Level Jacksonville Center
Wed 10:36:39 AM 30.2236 -81.0200 168° South 431 496 43,000  Level Miami Center
Wed 10:37:39 AM 30.1033 -80.9939 169° South 431 496 43,000  Level Miami Center
Wed 10:38:39 AM 29.9875 -80.9678 169° South 431 496 43,000  Level Miami Center
Wed 10:39:39 AM 29.8672 -80.9417 169° South 431 496 43,000  Level Miami Center
Wed 10:40:39 AM 29.7494 -80.9133 168° South 436 502 43,000  Level Miami Center
Wed 10:41:39 AM 29.6333 -80.8897 170° South 431 496 43,000  Level Miami Center
Wed 10:42:39 AM 29.5172 -80.8617 168° South 431 496 43,000  Level Miami Center
Wed 10:43:39 AM 29.3867 -80.8378 171° South 424 488 43,000 -750 Level Miami Center
Wed 10:44:39 AM 29.2706 -80.8097 168° South 424 488 41,500 -2,250 Descending Miami Center
Wed 10:45:39 AM 29.1522 -80.7867 170° South 429 494 38,500 -2,750 Descending Miami Center
Wed 10:46:39 AM 29.0347 -80.7444 163° South 429 494 36,000 -1,250 Descending Miami Center
Wed 10:47:39 AM 28.9236 -80.6861 155° Southeast 435 501 36,000  Level Miami Center
Wed 10:48:39 AM 28.8228 -80.6303 154° Southeast 442 509 36,000 -150 Level Miami Center
Wed 10:49:39 AM 28.7117 -80.5744 156° South 442 509 35,700 -1,600 Descending Miami Center
Wed 10:50:39 AM 28.5839 -80.5089 156° South 450 518 32,800 -2,700 Descending Miami Center
Wed 10:51:39 AM 28.4686 -80.4483 155° Southeast 459 528 30,300 -2,500 Descending Miami Center
Wed 10:52:39 AM 28.3492 -80.3903 157° South 459 528 27,800 -2,500 Descending Miami Center
Wed 10:53:39 AM 28.2461 -80.3375 156° South 459 528 25,300 -2,350 Descending Miami Center
Wed 10:54:39 AM 28.1347 -80.2731 153° Southeast 454 522 23,100 -1,950 Descending Miami Center
Wed 10:55:39 AM 28.0342 -80.2017 148° Southeast 412 474 21,400 -1,500 Descending Miami Center
Wed 10:56:39 AM 27.9303 -80.1844 172° South 365 420 20,100 -1,300 Descending Miami Center
Wed 10:57:39 AM 27.8281 -80.1792 177° South 370 426 18,800 -1,300 Descending Miami Center
Wed 10:58:39 AM 27.7386 -80.1697 175° South 363 418 17,500 -1,500 Descending Miami Center
Wed 10:59:39 AM 27.6425 -80.1644 177° South 358 412 15,800 -1,950 Descending Miami Center
Wed 11:00:39 AM 27.5386 -80.1544 175° South 346 398 13,600 -2,200 Descending Miami Center
Wed 11:01:39 AM 27.4425 -80.1469 176° South 346 398 11,400 -1,750 Descending Miami Center
Wed 11:02:39 AM 27.3489 -80.1350 174° South 346 398 10,100 -700 Descending Miami Center
Wed 11:03:39 AM 27.2614 -80.1256 175° South 346 398 10,000 -450 Descending Miami Center
Wed 11:04:39 AM 27.1781 -80.1139 173° South 324 373 9,200 -1,300 Descending Miami Center
Wed 11:05:39 AM 27.0906 -80.1044 175° South 296 341 7,400 -1,550 Descending Miami Center
Wed 11:06:39 AM 27.0117 -80.0953 174° South 288 331 6,100 -1,050 Descending Miami Center
Wed 11:07:39 AM 26.9386 -80.0861 174° South 283 326 5,300 -950 Descending Miami Center
Wed 11:08:39 AM 26.8825 -80.0800 174° South 252 290 4,200 -650 Descending Miami Center
Wed 11:09:39 AM 26.8236 -80.0947 193° South 231 266 4,000 -200 Descending Miami Center
Wed 11:11:00 AM 26.7910 -80.2430 265° West  Level FlightAware Approximate
Wed 11:18:00 AM 26.6832 -80.0956 110° East  Level Estimated
Wed 11:19:00 AM 26.6832 -80.0956 110° East  Level Estimated
Wed 11:20:00 AM 26.6832 -80.0956 110° East  Level Estimated
Wed 11:21:00 AM 26.6832 -80.0956 110° East  Level Estimated
Wed 11:22:00 AM 26.6832 -80.0956 110° East  Level Estimated
Wed 11:23:00 AM 26.6832 -80.0956 110° East  Level Estimated
Wed 11:24:00 AM 26.6832 -80.0956 110° East  Level Estimated
Wed 11:25:00 AM 26.6832 -80.0956 110° East  Level Estimated
Wed 11:26:00 AM 26.6832 -80.0956 110° East  Level Estimated

Login

Don't have an account? Register now (free) for customized features, flight alerts, and more!